createdAt,value
2018-07-26T00:01:22.638Z,67.47
2018-07-26T00:03:50.772Z,67.20
2018-07-26T00:06:18.864Z,67.42
2018-07-26T00:08:46.959Z,68.13
2018-07-26T00:11:15.035Z,68.79
2018-07-26T00:13:43.127Z,68.51
2018-07-26T00:16:11.214Z,68.97
2018-07-26T00:18:39.307Z,69.65
2018-07-26T00:21:07.414Z,70.51
2018-07-26T00:23:35.500Z,70.31
2018-07-26T00:26:03.578Z,70.53
2018-07-26T00:28:31.675Z,70.59
2018-07-26T00:31:00.039Z,70.89
2018-07-26T00:33:28.131Z,70.90
2018-07-26T00:35:56.202Z,71.78
2018-07-26T00:38:24.313Z,72.17
2018-07-26T00:40:52.454Z,72.62
2018-07-26T00:43:20.604Z,72.46
2018-07-26T00:45:48.701Z,72.36
2018-07-26T00:48:16.790Z,71.78
2018-07-26T00:50:44.918Z,71.96
2018-07-26T00:53:13.004Z,72.06
2018-07-26T00:55:41.111Z,72.70
2018-07-26T00:58:09.994Z,74.38
2018-07-26T01:00:38.116Z,74.37
2018-07-26T01:03:06.230Z,74.06
2018-07-26T01:05:34.323Z,73.70
2018-07-26T01:08:02.502Z,73.83
2018-07-26T01:10:30.583Z,74.39
2018-07-26T01:12:58.684Z,75.30
2018-07-26T01:15:26.771Z,74.82
2018-07-26T01:17:55.075Z,75.52
2018-07-26T01:20:23.167Z,74.98
2018-07-26T01:22:51.252Z,75.56
2018-07-26T01:25:19.358Z,75.46
2018-07-26T01:27:47.442Z,75.70
2018-07-26T01:30:15.546Z,75.30
2018-07-26T01:32:43.645Z,75.48
2018-07-26T01:35:11.731Z,76.36
2018-07-26T01:37:39.835Z,76.64
2018-07-26T01:40:07.950Z,76.58
2018-07-26T01:44:45.128Z,77.24
2018-07-26T01:47:13.220Z,77.57
2018-07-26T01:49:41.547Z,77.29
2018-07-26T01:52:09.628Z,77.77
2018-07-26T01:54:37.734Z,78.15
2018-07-26T01:57:05.828Z,78.64
2018-07-26T01:59:33.940Z,78.23
2018-07-26T02:02:02.120Z,78.20
2018-07-26T02:04:30.190Z,78.91
2018-07-26T02:06:58.267Z,79.53
2018-07-26T02:09:26.361Z,78.21
2018-07-26T02:11:54.475Z,78.57
2018-07-26T02:14:28.160Z,78.81
2018-07-26T02:16:56.255Z,78.89
2018-07-26T02:19:24.325Z,79.21
2018-07-26T02:21:52.446Z,79.57
2018-07-26T02:24:20.527Z,79.18
2018-07-26T02:26:48.621Z,79.60
2018-07-26T02:29:16.717Z,80.23
2018-07-26T02:31:44.823Z,80.38
2018-07-26T02:34:12.981Z,80.37
2018-07-26T02:36:41.115Z,80.45
2018-07-26T02:39:09.962Z,81.08
2018-07-26T02:41:38.366Z,80.26
2018-07-26T02:44:06.445Z,80.67
2018-07-26T02:46:34.537Z,80.19
2018-07-26T02:49:02.608Z,80.32
2018-07-26T02:51:30.699Z,80.44
2018-07-26T02:54:06.509Z,80.60
2018-07-26T02:56:34.595Z,80.69
2018-07-26T02:59:02.685Z,81.63
2018-07-26T03:01:30.779Z,82.58
2018-07-26T03:03:58.892Z,82.53
2018-07-26T03:06:26.998Z,82.11
2018-07-26T03:08:55.178Z,81.85
2018-07-26T03:11:23.279Z,82.12
2018-07-26T03:13:51.374Z,82.77
2018-07-26T03:16:19.475Z,82.94
2018-07-26T03:18:47.569Z,83.05
2018-07-26T03:21:15.992Z,83.25
2018-07-26T03:23:44.871Z,82.74
2018-07-26T03:26:13.040Z,82.20
2018-07-26T03:28:41.115Z,82.20
2018-07-26T03:31:09.482Z,82.26
2018-07-26T03:33:37.608Z,82.39
2018-07-26T03:36:05.696Z,82.35
2018-07-26T03:38:33.802Z,83.50
2018-07-26T03:41:02.009Z,83.47
2018-07-26T03:43:30.209Z,84.31
2018-07-26T03:45:58.264Z,84.95
2018-07-26T03:48:26.352Z,85.71
2018-07-26T03:50:54.439Z,86.16
2018-07-26T03:53:22.547Z,84.64
2018-07-26T03:55:57.034Z,84.26
2018-07-26T03:58:25.110Z,84.62
2018-07-26T04:00:53.200Z,84.13
2018-07-26T04:03:21.366Z,85.00
2018-07-26T04:05:49.447Z,85.56
2018-07-26T04:08:17.514Z,86.13
2018-07-26T04:10:46.032Z,85.62
2018-07-26T04:13:14.396Z,85.11
2018-07-26T04:15:42.485Z,85.72
2018-07-26T04:18:10.571Z,85.66
2018-07-26T04:20:38.657Z,85.05
2018-07-26T04:23:06.810Z,84.99
2018-07-26T04:25:34.901Z,85.39
2018-07-26T04:28:03.400Z,84.91
2018-07-26T04:30:31.482Z,85.00
2018-07-26T04:32:59.592Z,85.66
2018-07-26T04:35:27.709Z,83.81
2018-07-26T04:37:55.818Z,84.02
2018-07-26T04:40:23.915Z,83.16
2018-07-26T04:42:52.060Z,81.27
2018-07-26T04:45:20.144Z,81.43
2018-07-26T04:47:48.219Z,81.00
2018-07-26T04:50:16.320Z,81.21
2018-07-26T04:52:44.472Z,80.34
2018-07-26T04:55:12.534Z,79.83
2018-07-26T04:57:40.624Z,80.19
2018-07-26T05:00:08.799Z,80.37
2018-07-26T05:02:37.103Z,79.66
2018-07-26T05:05:05.699Z,79.17
2018-07-26T05:07:33.803Z,80.33
2018-07-26T05:10:01.933Z,80.45
2018-07-26T05:12:30.018Z,79.43
2018-07-26T05:14:58.192Z,78.89
2018-07-26T05:17:26.295Z,77.99
2018-07-26T05:19:54.387Z,77.17
2018-07-26T05:22:22.555Z,76.31
2018-07-26T05:24:50.643Z,76.45
2018-07-26T05:27:18.891Z,76.46
2018-07-26T05:29:46.995Z,75.16
2018-07-26T05:32:15.088Z,74.29
2018-07-26T05:34:43.202Z,72.08
2018-07-26T05:37:11.303Z,67.58
2018-07-26T05:39:39.392Z,62.10
2018-07-26T05:42:07.476Z,57.16
2018-07-26T05:44:35.579Z,51.53
2018-07-26T05:47:03.669Z,50.59
2018-07-26T05:49:31.763Z,48.34
2018-07-26T05:51:59.831Z,46.54
2018-07-26T05:54:27.929Z,44.96
2018-07-26T05:56:56.014Z,42.01
2018-07-26T05:59:24.191Z,39.58
2018-07-26T06:01:52.294Z,38.80
2018-07-26T06:04:20.445Z,40.60
2018-07-26T06:06:48.530Z,46.51
2018-07-26T06:09:16.636Z,46.81
2018-07-26T06:11:44.724Z,48.58
2018-07-26T06:14:12.824Z,49.37
2018-07-26T06:16:40.909Z,47.88
2018-07-26T06:19:09.009Z,47.31
2018-07-26T06:21:37.120Z,45.88
2018-07-26T06:24:05.436Z,46.51
2018-07-26T06:26:33.523Z,46.94
2018-07-26T06:29:01.620Z,47.36
2018-07-26T06:31:29.754Z,47.87
2018-07-26T06:33:57.840Z,47.01
2018-07-26T06:36:25.962Z,49.96
2018-07-26T06:38:54.056Z,48.61
2018-07-26T06:41:22.177Z,51.10
2018-07-26T06:43:50.279Z,54.55
2018-07-26T06:46:18.454Z,56.20
2018-07-26T06:48:46.555Z,58.11
2018-07-26T06:51:14.656Z,59.43
2018-07-26T06:53:42.733Z,60.11
2018-07-26T06:56:11.136Z,60.14
2018-07-26T06:58:39.227Z,60.88
2018-07-26T07:01:07.624Z,59.61
2018-07-26T07:03:35.711Z,59.67
2018-07-26T07:06:03.856Z,59.68
2018-07-26T07:08:31.943Z,58.12
2018-07-26T07:11:00.056Z,56.60
2018-07-26T07:13:28.157Z,57.53
2018-07-26T07:15:56.250Z,55.98
2018-07-26T07:18:24.568Z,54.56
2018-07-26T07:20:53.408Z,55.38
2018-07-26T07:23:21.514Z,55.20
2018-07-26T07:25:49.610Z,54.56
2018-07-26T07:28:17.709Z,52.77
2018-07-26T07:30:45.811Z,52.75
2018-07-26T07:33:13.990Z,52.88
2018-07-26T07:35:41.979Z,53.88
2018-07-26T07:38:10.075Z,52.23
2018-07-26T07:40:38.149Z,53.03
2018-07-26T07:43:06.272Z,52.37
2018-07-26T07:45:34.358Z,52.90
2018-07-26T07:48:02.460Z,52.36
2018-07-26T07:50:30.534Z,52.63
2018-07-26T07:52:58.641Z,52.23
2018-07-26T07:55:26.716Z,50.77
2018-07-26T07:57:54.827Z,50.40
2018-07-26T08:00:22.931Z,50.89
2018-07-26T08:02:51.035Z,51.21
2018-07-26T08:05:19.143Z,49.46
2018-07-26T08:07:47.207Z,51.16
2018-07-26T08:10:15.293Z,49.21
2018-07-26T08:12:43.373Z,49.43
2018-07-26T08:15:11.769Z,49.86
2018-07-26T08:17:39.847Z,49.84
2018-07-26T08:20:09.037Z,48.21
2018-07-26T08:22:37.127Z,48.07
2018-07-26T08:25:06.343Z,48.03
2018-07-26T08:27:34.465Z,47.00
2018-07-26T08:30:02.584Z,46.92
2018-07-26T08:32:30.677Z,45.98
2018-07-26T08:34:59.248Z,45.95
2018-07-26T08:37:27.303Z,46.30
2018-07-26T08:39:55.374Z,45.22
2018-07-26T08:42:23.521Z,45.18
2018-07-26T08:44:51.559Z,45.15
2018-07-26T08:47:19.638Z,44.19
2018-07-26T08:49:47.752Z,43.86
2018-07-26T08:52:15.978Z,44.01
2018-07-26T08:54:44.251Z,43.18
2018-07-26T08:57:12.353Z,43.05
2018-07-26T08:59:40.459Z,43.70
2018-07-26T09:02:08.560Z,42.00
2018-07-26T09:04:36.657Z,40.90
2018-07-26T09:07:04.771Z,40.38
2018-07-26T09:09:32.855Z,39.97
2018-07-26T09:12:00.940Z,41.15
2018-07-26T09:14:29.040Z,39.91
2018-07-26T09:16:58.172Z,38.62
2018-07-26T09:19:26.264Z,38.15
2018-07-26T09:21:54.346Z,38.20
2018-07-26T09:24:22.741Z,37.99
2018-07-26T09:26:50.796Z,37.63
2018-07-26T09:29:18.973Z,37.85
2018-07-26T09:31:47.236Z,36.02
2018-07-26T09:34:15.396Z,35.40
2018-07-26T09:36:43.488Z,33.43
2018-07-26T09:39:16.307Z,35.36
2018-07-26T09:41:45.665Z,35.50
2018-07-26T09:44:15.105Z,34.81
2018-07-26T09:46:43.188Z,34.01
2018-07-26T09:49:11.275Z,34.36
2018-07-26T09:51:39.362Z,33.91
2018-07-26T09:54:07.576Z,34.00
2018-07-26T09:56:35.667Z,33.89
2018-07-26T09:59:03.751Z,34.18
2018-07-26T10:01:33.516Z,34.27
2018-07-26T10:04:01.634Z,34.13
2018-07-26T10:06:30.507Z,34.38
2018-07-26T10:08:58.720Z,34.90
2018-07-26T10:11:27.539Z,35.30
2018-07-26T10:13:56.158Z,33.67
2018-07-26T10:16:24.423Z,33.31
2018-07-26T10:18:52.531Z,33.11
2018-07-26T10:21:20.727Z,32.76
2018-07-26T10:23:48.822Z,32.75
2018-07-26T10:26:16.906Z,32.55
2018-07-26T10:28:45.006Z,32.29
2018-07-26T10:31:13.104Z,31.52
2018-07-26T10:33:41.207Z,32.31
2018-07-26T10:36:09.308Z,32.57
2018-07-26T10:38:37.388Z,32.54
2018-07-26T10:41:05.532Z,31.30
2018-07-26T10:43:33.627Z,31.80
2018-07-26T10:46:02.751Z,32.09
2018-07-26T10:48:31.316Z,31.43
2018-07-26T10:50:59.426Z,30.95
2018-07-26T10:53:27.525Z,30.85
2018-07-26T10:55:55.627Z,30.22
2018-07-26T10:58:23.698Z,30.85
2018-07-26T11:00:51.803Z,30.87
2018-07-26T11:03:20.087Z,30.91
2018-07-26T11:05:48.176Z,31.23
2018-07-26T11:08:16.397Z,30.53
2018-07-26T11:10:44.475Z,30.38
2018-07-26T11:13:12.571Z,30.92
2018-07-26T11:15:40.659Z,30.00
2018-07-26T11:18:08.739Z,30.58
2018-07-26T11:20:36.835Z,31.75
2018-07-26T11:23:04.937Z,29.45
2018-07-26T11:25:33.068Z,30.35
2018-07-26T11:28:01.135Z,30.41
2018-07-26T11:30:29.257Z,30.17
2018-07-26T11:32:57.336Z,30.17
2018-07-26T11:35:25.415Z,31.29
2018-07-26T11:37:53.531Z,29.66
2018-07-26T11:40:21.700Z,28.93
2018-07-26T11:42:49.868Z,27.47
2018-07-26T11:45:17.979Z,27.94
2018-07-26T11:47:46.068Z,27.80
2018-07-26T11:50:14.229Z,28.24
2018-07-26T11:52:42.252Z,28.39
2018-07-26T11:55:10.356Z,28.78
2018-07-26T11:57:38.437Z,28.81
2018-07-26T12:00:07.872Z,28.41
2018-07-26T12:02:36.274Z,29.00
2018-07-26T12:05:04.760Z,29.16
2018-07-26T12:07:32.842Z,28.98
2018-07-26T12:10:00.928Z,27.89
2018-07-26T12:12:29.026Z,29.08
2018-07-26T12:14:57.102Z,28.49
2018-07-26T12:17:25.188Z,28.44
2018-07-26T12:19:53.275Z,29.09
2018-07-26T12:22:27.949Z,27.44
2018-07-26T12:24:56.041Z,28.03
2018-07-26T12:27:29.820Z,27.63
2018-07-26T12:29:57.908Z,28.02
2018-07-26T12:32:26.012Z,28.99
2018-07-26T12:34:54.395Z,28.34
2018-07-26T12:37:22.520Z,29.49
2018-07-26T12:39:50.778Z,30.14
2018-07-26T12:42:25.728Z,30.02
2018-07-26T12:44:53.825Z,30.89
2018-07-26T12:47:22.019Z,30.27
2018-07-26T12:49:50.069Z,29.02
2018-07-26T12:52:20.839Z,29.00
2018-07-26T12:54:49.333Z,29.71
2018-07-26T12:57:17.592Z,30.04
2018-07-26T12:59:45.673Z,29.64
2018-07-26T13:02:13.793Z,28.92
2018-07-26T13:04:41.887Z,30.09
2018-07-26T13:07:10.015Z,29.34
2018-07-26T13:09:38.160Z,29.79
2018-07-26T13:12:06.307Z,29.36
2018-07-26T13:14:34.415Z,28.66
2018-07-26T13:17:02.495Z,29.24
2018-07-26T13:19:30.592Z,28.42
2018-07-26T13:21:58.684Z,28.38
2018-07-26T13:24:26.771Z,28.36
2018-07-26T13:26:54.873Z,28.95
2018-07-26T13:29:23.267Z,29.01
2018-07-26T13:31:51.356Z,27.46
2018-07-26T13:34:19.458Z,28.39
2018-07-26T13:36:47.545Z,28.82
2018-07-26T13:39:15.641Z,27.65
2018-07-26T13:41:43.748Z,28.34
2018-07-26T13:44:11.839Z,28.91
2018-07-26T13:46:39.939Z,28.49
2018-07-26T13:49:08.037Z,27.50
2018-07-26T13:51:36.142Z,27.95
2018-07-26T13:54:04.253Z,27.68
2018-07-26T13:56:38.095Z,27.53
2018-07-26T13:59:06.172Z,27.21
2018-07-26T14:01:34.263Z,27.26
2018-07-26T14:04:02.366Z,27.78
2018-07-26T14:06:30.434Z,27.48
2018-07-26T14:08:58.527Z,26.65
2018-07-26T14:11:26.635Z,25.23
2018-07-26T14:13:54.704Z,27.11
2018-07-26T14:16:22.842Z,26.67
2018-07-26T14:18:50.963Z,26.48
2018-07-26T14:21:19.119Z,26.81
2018-07-26T14:23:51.375Z,26.60
2018-07-26T14:26:19.551Z,26.08
2018-07-26T14:28:47.647Z,26.15
2018-07-26T14:31:15.730Z,26.69
2018-07-26T14:33:43.817Z,27.77
2018-07-26T14:36:11.911Z,26.93
2018-07-26T14:38:40.679Z,27.50
2018-07-26T14:41:08.813Z,27.09
2018-07-26T14:43:36.954Z,27.20
2018-07-26T14:46:04.989Z,27.31
2018-07-26T14:48:39.800Z,27.47
2018-07-26T14:51:07.893Z,27.43
2018-07-26T14:53:35.996Z,25.46
2018-07-26T14:56:04.083Z,25.38
2018-07-26T14:58:32.368Z,25.60
2018-07-26T15:01:00.600Z,25.85
2018-07-26T15:03:28.652Z,26.00
2018-07-26T15:05:56.764Z,28.98
2018-07-26T15:08:24.865Z,25.68
2018-07-26T15:10:52.971Z,26.92
2018-07-26T15:13:21.345Z,26.50
2018-07-26T15:15:49.452Z,27.65
2018-07-26T15:18:17.526Z,28.93
2018-07-26T15:20:45.737Z,28.04
2018-07-26T15:23:13.821Z,27.09
2018-07-26T15:25:41.947Z,26.72
2018-07-26T15:28:10.063Z,26.47
2018-07-26T15:30:38.152Z,24.09
2018-07-26T15:33:06.257Z,24.50
2018-07-26T15:35:34.342Z,24.52
2018-07-26T15:38:02.441Z,25.12
2018-07-26T15:40:31.341Z,24.82
2018-07-26T15:42:59.437Z,25.85
2018-07-26T15:45:27.545Z,25.70
2018-07-26T15:47:55.637Z,28.71
2018-07-26T15:50:23.739Z,27.18
2018-07-26T15:52:51.833Z,25.35
2018-07-26T15:55:19.917Z,25.47
2018-07-26T15:57:48.007Z,25.37
2018-07-26T16:00:16.102Z,25.34
2018-07-26T16:02:44.195Z,24.56
2018-07-26T16:05:13.273Z,25.16
2018-07-26T16:07:41.320Z,24.80
2018-07-26T16:10:09.880Z,25.80
2018-07-26T16:12:38.248Z,25.94
2018-07-26T16:15:08.515Z,25.01
2018-07-26T16:17:36.688Z,25.93
2018-07-26T16:20:06.668Z,25.62
2018-07-26T16:22:34.805Z,26.14
2018-07-26T16:25:02.888Z,25.53
2018-07-26T16:27:31.188Z,25.56
2018-07-26T16:29:59.310Z,25.95
2018-07-26T16:32:27.820Z,25.92
2018-07-26T16:34:55.912Z,25.19
2018-07-26T16:37:23.994Z,25.05
2018-07-26T16:39:52.120Z,25.52
2018-07-26T16:42:20.475Z,24.45
2018-07-26T16:44:48.621Z,24.53
2018-07-26T16:47:17.055Z,25.66
2018-07-26T16:49:45.146Z,25.16
2018-07-26T16:52:13.554Z,24.39
2018-07-26T16:54:41.643Z,26.84
2018-07-26T16:57:09.744Z,25.04
2018-07-26T16:59:37.850Z,24.69
2018-07-26T17:02:05.955Z,24.48
2018-07-26T17:04:34.049Z,24.66
2018-07-26T17:07:02.137Z,24.42
2018-07-26T17:09:30.221Z,24.33
2018-07-26T17:11:58.352Z,24.17
2018-07-26T17:14:26.451Z,23.83
2018-07-26T17:16:54.545Z,23.17
2018-07-26T17:19:22.629Z,23.07
2018-07-26T17:21:50.747Z,23.88
2018-07-26T17:24:18.907Z,23.79
2018-07-26T17:26:47.019Z,24.84
2018-07-26T17:29:16.757Z,24.06
2018-07-26T17:31:45.068Z,24.68
2018-07-26T17:34:13.220Z,25.46
2018-07-26T17:36:41.311Z,24.56
2018-07-26T17:39:11.227Z,25.06
2018-07-26T17:41:39.607Z,26.22
2018-07-26T17:44:07.714Z,26.86
2018-07-26T17:46:35.835Z,26.99
2018-07-26T17:49:03.937Z,27.09
2018-07-26T17:51:32.321Z,26.51
2018-07-26T17:54:00.411Z,27.11
2018-07-26T17:56:28.489Z,27.11
2018-07-26T17:58:56.585Z,28.31
2018-07-26T18:01:24.676Z,27.90
2018-07-26T18:03:52.784Z,28.62
2018-07-26T18:06:20.953Z,27.94
2018-07-26T18:08:49.040Z,28.00
2018-07-26T18:11:17.618Z,27.23
2018-07-26T18:13:45.767Z,28.25
2018-07-26T18:16:13.862Z,27.86
2018-07-26T18:18:41.960Z,29.87
2018-07-26T18:21:10.087Z,29.42
2018-07-26T18:23:38.187Z,29.89
2018-07-26T18:26:06.327Z,30.95
2018-07-26T18:28:34.430Z,32.09
2018-07-26T18:31:02.548Z,32.46
2018-07-26T18:33:30.640Z,32.97
2018-07-26T18:35:58.731Z,34.28
2018-07-26T18:38:26.859Z,34.11
2018-07-26T18:40:54.961Z,34.21
2018-07-26T18:43:23.194Z,34.87
2018-07-26T18:45:51.293Z,35.19
2018-07-26T18:48:19.629Z,36.07
2018-07-26T18:50:48.032Z,35.63
2018-07-26T18:53:16.140Z,35.71
2018-07-26T18:55:44.372Z,36.00
2018-07-26T18:58:12.489Z,35.74
2018-07-26T19:00:40.596Z,36.46
2018-07-26T19:03:08.677Z,37.13
2018-07-26T19:05:36.772Z,36.80
2018-07-26T19:08:05.596Z,36.78
2018-07-26T19:10:33.684Z,36.67
2018-07-26T19:13:01.782Z,37.44
2018-07-26T19:15:29.883Z,37.21
2018-07-26T19:17:57.996Z,37.22
2018-07-26T19:20:26.122Z,37.40
2018-07-26T19:22:54.236Z,37.12
2018-07-26T19:25:23.401Z,37.39
2018-07-26T19:27:51.509Z,37.77
2018-07-26T19:30:20.343Z,37.48
2018-07-26T19:32:48.451Z,38.14
2018-07-26T19:35:16.581Z,38.09
2018-07-26T19:37:44.656Z,39.65
2018-07-26T19:40:19.494Z,38.44
2018-07-26T19:42:47.581Z,38.18
2018-07-26T19:45:15.708Z,38.42
2018-07-26T19:47:43.813Z,38.43
2018-07-26T19:50:11.957Z,38.85
2018-07-26T19:52:40.059Z,38.27
2018-07-26T19:55:09.875Z,38.48
2018-07-26T19:57:37.975Z,39.28
2018-07-26T20:00:06.951Z,40.92
2018-07-26T20:02:36.234Z,41.37
2018-07-26T20:05:04.709Z,41.95
2018-07-26T20:07:32.789Z,41.48
2018-07-26T20:10:00.956Z,40.91
2018-07-26T20:12:29.024Z,43.06
2018-07-26T20:14:57.171Z,44.71
2018-07-26T20:17:25.328Z,44.15
2018-07-26T20:19:53.415Z,43.83
2018-07-26T20:22:22.348Z,44.25
2018-07-26T20:24:50.448Z,45.48
2018-07-26T20:27:18.520Z,46.44
2018-07-26T20:29:46.615Z,46.40
2018-07-26T20:32:14.692Z,47.69
2018-07-26T20:34:43.110Z,47.01
2018-07-26T20:37:11.227Z,46.91
2018-07-26T20:39:39.371Z,47.71
2018-07-26T20:42:07.519Z,48.41
2018-07-26T20:44:35.624Z,47.42
2018-07-26T20:47:03.782Z,49.23
2018-07-26T20:49:31.945Z,48.29
2018-07-26T20:52:00.057Z,47.67
2018-07-26T20:54:28.175Z,48.78
2018-07-26T20:56:56.292Z,47.65
2018-07-26T20:59:24.455Z,49.45
2018-07-26T21:01:52.586Z,49.27
2018-07-26T21:04:20.737Z,49.77
2018-07-26T21:06:48.875Z,48.73
2018-07-26T21:09:16.961Z,49.66
2018-07-26T21:11:45.596Z,50.74
2018-07-26T21:14:13.701Z,51.27
2018-07-26T21:16:42.099Z,50.35
2018-07-26T21:19:10.221Z,51.75
2018-07-26T21:21:38.439Z,51.86
2018-07-26T21:24:06.532Z,52.37
2018-07-26T21:26:34.631Z,53.41
2018-07-26T21:29:02.728Z,53.88
2018-07-26T21:31:33.842Z,53.90
2018-07-26T21:34:01.924Z,53.74
2018-07-26T21:36:30.045Z,55.05
2018-07-26T21:38:58.123Z,55.90
2018-07-26T21:41:26.209Z,56.84
2018-07-26T21:43:55.323Z,56.88
2018-07-26T21:46:23.517Z,57.03
2018-07-26T21:48:51.624Z,57.98
2018-07-26T21:51:19.737Z,56.92
2018-07-26T21:53:47.840Z,57.29
2018-07-26T21:56:16.088Z,58.10
2018-07-26T21:58:44.202Z,58.15
2018-07-26T22:13:11.941Z,59.85
2018-07-26T22:15:40.287Z,61.81
2018-07-26T22:18:08.493Z,62.51
2018-07-26T22:20:36.583Z,62.39
2018-07-26T22:23:04.710Z,62.97
2018-07-26T22:25:32.993Z,62.01
2018-07-26T22:28:01.100Z,62.54
2018-07-26T22:30:29.216Z,61.91
2018-07-26T22:32:57.710Z,63.13
2018-07-26T22:35:25.905Z,62.56
2018-07-26T22:37:54.332Z,61.78
2018-07-26T22:40:23.238Z,62.09
2018-07-26T22:42:51.399Z,61.68
2018-07-26T22:45:19.490Z,62.06
2018-07-26T22:47:47.632Z,61.20
2018-07-26T22:50:15.738Z,62.29
2018-07-26T22:52:43.921Z,62.47
2018-07-26T22:55:12.078Z,62.27
2018-07-26T22:57:40.191Z,62.26
2018-07-26T23:00:08.529Z,62.29
2018-07-26T23:02:36.619Z,61.32
2018-07-26T23:05:05.092Z,62.75
2018-07-26T23:07:33.220Z,63.44
2018-07-26T23:10:01.339Z,63.19
2018-07-26T23:12:29.417Z,62.96
2018-07-26T23:14:57.578Z,62.39
2018-07-26T23:17:25.948Z,63.23
2018-07-26T23:19:54.048Z,63.42
2018-07-26T23:22:22.164Z,63.48
2018-07-26T23:24:50.251Z,63.35
2018-07-26T23:27:18.372Z,63.13
2018-07-26T23:29:46.479Z,63.76
2018-07-26T23:32:14.578Z,64.68
2018-07-26T23:34:42.680Z,65.17
2018-07-26T23:37:10.785Z,65.37
2018-07-26T23:39:38.886Z,65.74
2018-07-26T23:42:06.971Z,65.04
2018-07-26T23:44:35.072Z,66.70
2018-07-26T23:47:03.158Z,66.33
2018-07-26T23:49:31.228Z,66.23
2018-07-26T23:51:59.308Z,66.36
2018-07-26T23:54:27.418Z,66.90
2018-07-26T23:56:55.494Z,67.40
2018-07-26T23:59:23.612Z,67.50
